createdAt,value
2022-09-25T00:02:33.099Z,90.33
2022-09-25T00:05:05.365Z,90.33
2022-09-25T00:07:37.452Z,90.20
2022-09-25T00:10:09.951Z,90.17
2022-09-25T00:12:42.397Z,90.17
2022-09-25T00:15:14.735Z,90.04
2022-09-25T00:17:46.778Z,90.03
2022-09-25T00:20:20.895Z,89.97
2022-09-25T00:22:54.473Z,89.92
2022-09-25T00:25:27.548Z,90.08
2022-09-25T00:27:59.750Z,89.95
2022-09-25T00:30:31.807Z,89.86
2022-09-25T00:33:04.260Z,90.01
2022-09-25T00:35:36.499Z,90.06
2022-09-25T00:38:08.766Z,90.26
2022-09-25T00:40:40.953Z,90.29
2022-09-25T00:43:17.614Z,90.13
2022-09-25T00:45:49.830Z,90.20
2022-09-25T00:48:21.954Z,90.42
2022-09-25T00:50:56.998Z,90.44
2022-09-25T00:53:35.188Z,90.46
2022-09-25T00:56:08.305Z,90.41
2022-09-25T00:58:42.209Z,90.44
2022-09-25T01:01:14.466Z,90.43
2022-09-25T01:03:46.587Z,90.23
2022-09-25T01:06:19.830Z,90.15
2022-09-25T01:08:51.948Z,90.06
2022-09-25T01:11:24.004Z,89.93
2022-09-25T01:13:58.090Z,90.04
2022-09-25T01:16:42.074Z,90.01
2022-09-25T01:19:23.053Z,90.16
2022-09-25T01:21:58.518Z,90.07
2022-09-25T01:24:42.658Z,90.03
2022-09-25T01:27:34.327Z,90.09
2022-09-25T01:30:09.451Z,90.01
2022-09-25T01:32:53.265Z,89.83
2022-09-25T01:35:46.560Z,89.96
2022-09-25T01:38:24.610Z,90.04
2022-09-25T01:41:14.750Z,90.23
2022-09-25T01:44:05.149Z,90.23
2022-09-25T01:46:40.098Z,90.38
2022-09-25T01:49:15.258Z,90.35
2022-09-25T01:51:50.160Z,90.30
2022-09-25T01:54:43.416Z,90.37
2022-09-25T01:57:21.361Z,90.37
2022-09-25T01:59:59.421Z,90.42
2022-09-25T02:02:36.494Z,90.45
2022-09-25T02:05:17.887Z,90.36
2022-09-25T02:07:55.698Z,90.38
2022-09-25T02:10:32.013Z,90.47
2022-09-25T02:13:15.859Z,90.45
2022-09-25T02:15:59.710Z,90.57
2022-09-25T02:18:49.970Z,90.21
2022-09-25T02:21:46.144Z,89.89
2022-09-25T02:24:24.254Z,89.47
2022-09-25T02:26:57.727Z,89.17
2022-09-25T02:29:30.760Z,89.02
2022-09-25T02:32:08.818Z,89.09
2022-09-25T02:34:40.984Z,89.16
2022-09-25T02:37:19.780Z,89.12
2022-09-25T02:39:54.617Z,88.93
2022-09-25T02:42:41.394Z,88.86
2022-09-25T02:45:34.415Z,88.59
2022-09-25T02:48:15.019Z,88.56
2022-09-25T02:50:53.000Z,88.70
2022-09-25T02:53:36.827Z,88.72
2022-09-25T02:56:43.452Z,88.89
2022-09-25T02:59:18.789Z,88.91
2022-09-25T03:01:52.800Z,88.94
2022-09-25T03:04:26.971Z,89.11
2022-09-25T03:06:59.650Z,89.33
2022-09-25T03:09:34.836Z,89.41
2022-09-25T03:12:06.943Z,89.51
2022-09-25T03:14:40.041Z,89.78
2022-09-25T03:17:15.076Z,89.94
2022-09-25T03:19:47.126Z,90.02
2022-09-25T03:22:19.887Z,89.81
2022-09-25T03:24:53.336Z,89.87
2022-09-25T03:27:27.274Z,89.87
2022-09-25T03:29:59.289Z,89.95
2022-09-25T03:32:33.150Z,90.24
2022-09-25T03:35:05.161Z,90.02
2022-09-25T03:37:37.350Z,90.14
2022-09-25T03:40:09.880Z,90.30
2022-09-25T03:42:43.467Z,90.30
2022-09-25T03:45:15.797Z,89.89
2022-09-25T03:47:47.828Z,89.74
2022-09-25T03:50:19.935Z,89.80
2022-09-25T03:52:52.193Z,89.72
2022-09-25T03:55:26.078Z,89.56
2022-09-25T03:57:58.130Z,89.53
2022-09-25T04:00:30.347Z,89.73
2022-09-25T04:03:02.662Z,89.65
2022-09-25T04:05:35.059Z,89.95
2022-09-25T04:08:07.420Z,89.85
2022-09-25T04:10:40.369Z,89.91
2022-09-25T04:13:13.034Z,90.07
2022-09-25T04:15:45.544Z,90.06
2022-09-25T04:18:17.663Z,89.65
2022-09-25T04:20:49.824Z,89.66
2022-09-25T04:23:22.181Z,89.74
2022-09-25T04:25:54.631Z,89.72
2022-09-25T04:28:27.583Z,89.65
2022-09-25T04:31:00.689Z,89.60
2022-09-25T04:33:48.515Z,89.54
2022-09-25T04:36:20.667Z,89.57
2022-09-25T04:38:52.700Z,89.59
2022-09-25T04:41:24.888Z,89.39
2022-09-25T04:43:56.964Z,89.23
2022-09-25T04:46:29.109Z,89.36
2022-09-25T04:49:01.365Z,89.20
2022-09-25T04:51:33.647Z,89.44
2022-09-25T04:54:06.335Z,89.48
2022-09-25T04:56:38.398Z,89.22
2022-09-25T04:59:11.920Z,89.46
2022-09-25T05:01:44.420Z,89.50
2022-09-25T05:04:16.765Z,89.48
2022-09-25T05:06:48.976Z,89.37
2022-09-25T05:09:20.972Z,89.48
2022-09-25T05:11:53.387Z,89.50
2022-09-25T05:14:26.174Z,89.59
2022-09-25T05:16:58.439Z,89.46
2022-09-25T05:19:31.145Z,89.46
2022-09-25T05:22:03.363Z,89.32
2022-09-25T05:24:35.557Z,89.25
2022-09-25T05:27:07.869Z,89.10
2022-09-25T05:29:40.312Z,88.81
2022-09-25T05:32:12.266Z,88.71
2022-09-25T05:34:45.176Z,88.53
2022-09-25T05:37:17.764Z,88.61
2022-09-25T05:39:49.739Z,88.72
2022-09-25T05:42:21.809Z,88.85
2022-09-25T05:44:53.922Z,88.64
2022-09-25T05:47:26.531Z,88.59
2022-09-25T05:49:58.796Z,88.80
2022-09-25T05:52:32.453Z,88.72
2022-09-25T05:55:06.256Z,88.69
2022-09-25T05:57:39.476Z,88.50
2022-09-25T06:00:13.646Z,88.98
2022-09-25T06:02:45.905Z,89.04
2022-09-25T06:05:18.388Z,88.78
2022-09-25T06:07:55.418Z,88.57
2022-09-25T06:10:28.266Z,88.25
2022-09-25T06:13:02.606Z,87.94
2022-09-25T06:15:42.091Z,87.06
2022-09-25T06:18:14.372Z,86.99
2022-09-25T06:20:46.516Z,87.17
2022-09-25T06:23:19.915Z,87.42
2022-09-25T06:25:52.007Z,87.64
2022-09-25T06:28:24.275Z,87.62
2022-09-25T06:30:56.212Z,87.59
2022-09-25T06:33:28.326Z,87.42
2022-09-25T06:36:02.880Z,87.04
2022-09-25T06:38:35.063Z,87.28
2022-09-25T06:41:07.247Z,87.35
2022-09-25T06:43:39.471Z,87.73
2022-09-25T06:46:11.480Z,87.91
2022-09-25T06:48:43.894Z,87.39
2022-09-25T06:51:16.075Z,87.29
2022-09-25T06:53:48.637Z,87.41
2022-09-25T06:56:21.562Z,86.50
2022-09-25T06:58:53.908Z,86.58
2022-09-25T07:01:26.006Z,86.29
2022-09-25T07:03:58.278Z,86.24
2022-09-25T07:06:31.702Z,86.66
2022-09-25T07:09:04.071Z,86.64
2022-09-25T07:11:36.230Z,86.27
2022-09-25T07:14:09.903Z,86.96
2022-09-25T07:16:41.947Z,87.69
2022-09-25T07:19:14.166Z,87.66
2022-09-25T07:21:46.717Z,86.67
2022-09-25T07:24:18.982Z,85.62
2022-09-25T07:26:52.909Z,85.42
2022-09-25T07:29:25.214Z,85.82
2022-09-25T07:31:57.379Z,85.53
2022-09-25T07:34:29.715Z,84.09
2022-09-25T07:37:02.105Z,84.03
2022-09-25T07:39:34.111Z,84.10
2022-09-25T07:42:07.075Z,84.95
2022-09-25T07:44:42.386Z,85.45
2022-09-25T07:47:15.352Z,85.12
2022-09-25T07:49:48.014Z,85.21
2022-09-25T07:52:20.219Z,85.61
2022-09-25T07:54:52.823Z,86.00
2022-09-25T07:57:24.862Z,86.16
2022-09-25T07:59:57.150Z,85.23
2022-09-25T08:02:29.371Z,85.36
2022-09-25T08:05:01.343Z,85.14
2022-09-25T08:07:33.593Z,84.98
2022-09-25T08:10:06.685Z,84.54
2022-09-25T08:12:40.825Z,84.62
2022-09-25T08:15:14.859Z,82.93
2022-09-25T08:17:46.871Z,82.63
2022-09-25T08:20:19.633Z,82.33
2022-09-25T08:22:57.456Z,82.29
2022-09-25T08:25:29.857Z,82.42
2022-09-25T08:28:03.332Z,82.14
2022-09-25T08:30:37.456Z,81.65
2022-09-25T08:33:15.456Z,81.83
2022-09-25T08:35:49.866Z,82.37
2022-09-25T08:38:22.277Z,82.58
2022-09-25T08:41:04.045Z,83.10
2022-09-25T08:43:38.976Z,82.49
2022-09-25T08:46:31.624Z,82.48
2022-09-25T08:49:05.368Z,81.79
2022-09-25T08:51:46.426Z,82.10
2022-09-25T08:54:21.389Z,82.03
2022-09-25T08:57:21.708Z,82.53
2022-09-25T09:00:01.389Z,81.66
2022-09-25T09:02:39.651Z,81.18
2022-09-25T09:05:20.778Z,80.84
2022-09-25T09:07:55.616Z,80.50
2022-09-25T09:10:33.870Z,80.94
2022-09-25T09:13:14.811Z,79.92
2022-09-25T09:15:49.865Z,79.56
2022-09-25T09:18:30.162Z,80.28
2022-09-25T09:21:17.228Z,80.38
2022-09-25T09:24:01.698Z,80.80
2022-09-25T09:26:36.888Z,80.63
2022-09-25T09:29:45.358Z,81.10
2022-09-25T09:32:35.138Z,81.73
2022-09-25T09:35:33.660Z,82.46
2022-09-25T09:38:18.673Z,82.51
2022-09-25T09:41:18.748Z,82.41
2022-09-25T09:44:08.736Z,82.93
2022-09-25T09:46:53.764Z,82.44
2022-09-25T09:49:35.873Z,82.51
2022-09-25T09:52:17.196Z,82.19
2022-09-25T09:55:04.624Z,81.42
2022-09-25T09:57:52.654Z,80.83
2022-09-25T10:00:25.783Z,80.58
2022-09-25T10:03:21.917Z,81.18
2022-09-25T10:05:59.782Z,81.37
2022-09-25T10:08:32.240Z,81.38
2022-09-25T10:11:07.730Z,80.94
2022-09-25T10:13:41.883Z,80.19
2022-09-25T10:16:19.911Z,81.03
2022-09-25T10:19:05.941Z,81.11
2022-09-25T10:21:47.081Z,80.62
2022-09-25T10:24:53.588Z,80.50
2022-09-25T10:27:41.866Z,80.93
2022-09-25T10:30:20.547Z,80.34
2022-09-25T10:33:06.705Z,80.37
2022-09-25T10:35:42.868Z,80.37
2022-09-25T10:38:30.194Z,80.35
2022-09-25T10:41:12.386Z,80.59
2022-09-25T10:43:56.833Z,80.07
2022-09-25T10:46:55.179Z,79.54
2022-09-25T10:49:46.629Z,79.14
2022-09-25T10:52:22.611Z,78.50
2022-09-25T10:54:57.829Z,77.76
2022-09-25T10:57:39.141Z,77.25
2022-09-25T11:00:25.766Z,77.27
2022-09-25T11:03:00.865Z,76.94
2022-09-25T11:05:38.931Z,77.30
2022-09-25T11:08:12.433Z,77.49
2022-09-25T11:10:57.434Z,78.08
2022-09-25T11:13:30.492Z,78.26
2022-09-25T11:16:03.250Z,79.22
2022-09-25T11:18:47.377Z,77.67
2022-09-25T11:21:35.079Z,76.94
2022-09-25T11:24:25.102Z,76.24
2022-09-25T11:27:12.376Z,75.60
2022-09-25T11:29:50.394Z,75.96
2022-09-25T11:32:37.325Z,76.36
2022-09-25T11:35:24.487Z,76.09
2022-09-25T11:38:20.502Z,76.32
2022-09-25T11:41:13.083Z,76.74
2022-09-25T11:44:20.537Z,76.63
2022-09-25T11:47:07.779Z,77.18
2022-09-25T11:49:42.630Z,78.23
2022-09-25T11:52:24.283Z,78.60
2022-09-25T11:55:26.546Z,78.87
2022-09-25T11:58:25.574Z,79.48
2022-09-25T12:01:25.754Z,79.20
2022-09-25T12:04:03.429Z,79.39
2022-09-25T12:06:59.214Z,80.11
2022-09-25T12:09:46.218Z,80.61
2022-09-25T12:12:25.202Z,81.03
2022-09-25T12:15:22.701Z,80.33
2022-09-25T12:17:58.106Z,80.74
2022-09-25T12:20:36.128Z,80.14
2022-09-25T12:23:27.910Z,80.57
2022-09-25T12:26:22.530Z,80.64
2022-09-25T12:29:04.725Z,79.76
2022-09-25T12:31:56.049Z,80.38
2022-09-25T12:34:34.136Z,80.38
2022-09-25T12:37:20.699Z,79.97
2022-09-25T12:40:03.407Z,79.61
2022-09-25T12:42:53.278Z,79.71
2022-09-25T12:45:40.284Z,79.10
2022-09-25T12:48:31.688Z,79.56
2022-09-25T12:51:23.628Z,78.79
2022-09-25T12:54:02.097Z,78.07
2022-09-25T12:56:56.453Z,78.43
2022-09-25T12:59:43.942Z,78.51
2022-09-25T13:02:25.348Z,77.81
2022-09-25T13:05:05.034Z,78.19
2022-09-25T13:07:46.330Z,79.44
2022-09-25T13:10:30.622Z,77.61
2022-09-25T13:13:10.678Z,76.77
2022-09-25T13:15:42.613Z,76.64
2022-09-25T13:18:24.248Z,76.89
2022-09-25T13:21:03.311Z,76.27
2022-09-25T13:23:41.223Z,75.70
2022-09-25T13:26:16.644Z,75.68
2022-09-25T13:29:00.809Z,76.07
2022-09-25T13:31:36.616Z,76.17
2022-09-25T13:34:14.623Z,76.93
2022-09-25T13:36:53.652Z,77.33
2022-09-25T13:40:01.507Z,77.62
2022-09-25T13:42:39.296Z,77.97
2022-09-25T13:45:36.646Z,77.61
2022-09-25T13:48:26.941Z,77.42
2022-09-25T13:51:20.953Z,77.65
2022-09-25T13:54:03.373Z,77.05
2022-09-25T13:56:44.934Z,77.50
2022-09-25T13:59:20.606Z,77.19
2022-09-25T14:01:58.652Z,76.51
2022-09-25T14:04:37.111Z,76.48
2022-09-25T14:07:18.293Z,76.86
2022-09-25T14:09:55.385Z,77.14
2022-09-25T14:12:33.654Z,77.27
2022-09-25T14:15:13.753Z,77.27
2022-09-25T14:17:48.463Z,76.79
2022-09-25T14:20:29.635Z,76.65
2022-09-25T14:23:05.113Z,75.97
2022-09-25T14:25:40.809Z,75.69
2022-09-25T14:28:19.220Z,75.31
2022-09-25T14:31:11.880Z,75.43
2022-09-25T14:33:59.589Z,75.48
2022-09-25T14:36:36.609Z,75.58
2022-09-25T14:39:14.755Z,75.00
2022-09-25T14:42:14.315Z,75.38
2022-09-25T14:45:22.825Z,74.53
2022-09-25T14:47:59.864Z,73.64
2022-09-25T14:50:35.750Z,72.91
2022-09-25T14:53:10.944Z,72.54
2022-09-25T14:55:49.765Z,72.50
2022-09-25T14:58:25.042Z,72.45
2022-09-25T15:01:00.915Z,72.11
2022-09-25T15:03:35.245Z,72.18
2022-09-25T15:06:10.491Z,72.72
2022-09-25T15:08:43.364Z,72.50
2022-09-25T15:11:21.223Z,72.68
2022-09-25T15:13:55.141Z,72.28
2022-09-25T15:16:46.677Z,72.59
2022-09-25T15:19:26.214Z,72.15
2022-09-25T15:21:59.162Z,71.99
2022-09-25T15:24:34.757Z,72.35
2022-09-25T15:27:09.038Z,73.17
2022-09-25T15:29:44.135Z,73.43
2022-09-25T15:32:23.033Z,73.78
2022-09-25T15:35:10.017Z,73.66
2022-09-25T15:37:42.391Z,72.66
2022-09-25T15:40:32.170Z,72.46
2022-09-25T15:43:05.143Z,72.36
2022-09-25T15:45:49.313Z,72.87
2022-09-25T15:48:29.251Z,72.25
2022-09-25T15:51:16.623Z,71.54
2022-09-25T15:53:58.484Z,72.17
2022-09-25T15:56:34.029Z,73.01
2022-09-25T15:59:09.619Z,72.97
2022-09-25T16:02:02.371Z,72.98
2022-09-25T16:04:47.170Z,72.66
2022-09-25T16:07:28.669Z,72.98
2022-09-25T16:10:04.363Z,73.16
2022-09-25T16:12:36.611Z,72.73
2022-09-25T16:15:30.394Z,74.80
2022-09-25T16:18:06.171Z,73.39
2022-09-25T16:20:41.663Z,73.72
2022-09-25T16:23:27.895Z,73.78
2022-09-25T16:26:01.203Z,74.17
2022-09-25T16:28:36.612Z,74.23
2022-09-25T16:31:11.142Z,74.34
2022-09-25T16:33:44.120Z,73.76
2022-09-25T16:36:19.041Z,76.43
2022-09-25T16:39:11.014Z,73.76
2022-09-25T16:41:46.599Z,73.26
2022-09-25T16:44:25.340Z,72.97
2022-09-25T16:47:00.603Z,72.93
2022-09-25T16:49:34.349Z,72.91
2022-09-25T16:52:09.341Z,73.30
2022-09-25T16:54:42.053Z,73.70
2022-09-25T16:57:16.830Z,73.75
2022-09-25T16:59:53.101Z,73.93
2022-09-25T17:02:35.657Z,74.25
2022-09-25T17:05:16.025Z,74.65
2022-09-25T17:07:54.176Z,74.94
2022-09-25T17:10:29.730Z,74.91
2022-09-25T17:13:03.696Z,74.91
2022-09-25T17:15:38.238Z,74.68
2022-09-25T17:18:19.989Z,75.27
2022-09-25T17:20:54.188Z,75.00
2022-09-25T17:23:26.625Z,75.53
2022-09-25T17:26:17.295Z,76.97
2022-09-25T17:28:53.128Z,75.79
2022-09-25T17:31:26.455Z,75.80
2022-09-25T17:33:59.308Z,75.58
2022-09-25T17:36:32.091Z,75.85
2022-09-25T17:39:06.189Z,76.33
2022-09-25T17:41:39.607Z,76.17
2022-09-25T17:44:22.699Z,75.98
2022-09-25T17:46:58.035Z,76.08
2022-09-25T17:49:30.290Z,76.15
2022-09-25T17:52:03.667Z,76.36
2022-09-25T17:54:36.102Z,76.64
2022-09-25T17:57:10.155Z,75.90
2022-09-25T17:59:42.696Z,75.78
2022-09-25T18:02:17.676Z,75.60
2022-09-25T18:04:50.480Z,75.17
2022-09-25T18:07:23.753Z,75.21
2022-09-25T18:09:56.408Z,74.87
2022-09-25T18:12:28.894Z,75.01
2022-09-25T18:15:01.376Z,74.76
2022-09-25T18:17:34.270Z,74.58
2022-09-25T18:20:25.365Z,74.60
2022-09-25T18:22:57.812Z,74.28
2022-09-25T18:25:30.509Z,74.54
2022-09-25T18:28:03.569Z,74.41
2022-09-25T18:30:38.364Z,74.33
2022-09-25T18:33:10.403Z,74.40
2022-09-25T18:35:43.135Z,74.63
2022-09-25T18:38:15.336Z,74.53
2022-09-25T18:40:47.920Z,74.63
2022-09-25T18:43:20.117Z,74.67
2022-09-25T18:45:52.398Z,74.78
2022-09-25T18:48:25.029Z,74.68
2022-09-25T18:50:57.102Z,74.52
2022-09-25T18:53:29.813Z,74.47
2022-09-25T18:56:02.433Z,74.32
2022-09-25T18:58:34.826Z,74.87
2022-09-25T19:01:08.178Z,75.12
2022-09-25T19:03:41.145Z,75.00
2022-09-25T19:06:13.798Z,75.29
2022-09-25T19:08:47.844Z,75.49
2022-09-25T19:11:20.317Z,75.10
2022-09-25T19:13:53.015Z,75.03
2022-09-25T19:16:25.693Z,75.03
2022-09-25T19:18:58.163Z,74.95
2022-09-25T19:21:31.507Z,75.01
2022-09-25T19:24:03.659Z,74.91
2022-09-25T19:26:35.661Z,75.05
2022-09-25T19:29:07.703Z,74.73
2022-09-25T19:31:39.769Z,74.65
2022-09-25T19:34:11.936Z,74.68
2022-09-25T19:36:44.248Z,74.87
2022-09-25T19:39:16.497Z,74.88
2022-09-25T19:41:49.268Z,75.53
2022-09-25T19:44:21.703Z,74.85
2022-09-25T19:46:53.650Z,75.23
2022-09-25T19:49:25.853Z,75.32
2022-09-25T19:51:58.931Z,74.99
2022-09-25T19:54:30.911Z,74.23
2022-09-25T19:57:02.891Z,74.19
2022-09-25T19:59:35.218Z,74.13
2022-09-25T20:02:08.026Z,74.04
2022-09-25T20:04:40.130Z,74.30
2022-09-25T20:07:18.808Z,74.20
2022-09-25T20:09:50.809Z,73.96
2022-09-25T20:12:22.755Z,74.48
2022-09-25T20:14:54.816Z,74.47
2022-09-25T20:17:26.778Z,74.64
2022-09-25T20:19:58.892Z,75.10
2022-09-25T20:22:32.550Z,75.22
2022-09-25T20:25:04.952Z,75.54
2022-09-25T20:27:37.456Z,76.08
2022-09-25T20:30:09.964Z,76.20
2022-09-25T20:32:42.057Z,76.42
2022-09-25T20:35:14.091Z,76.51
2022-09-25T20:37:47.106Z,76.50
2022-09-25T20:40:19.250Z,76.85
2022-09-25T20:42:51.248Z,77.05
2022-09-25T20:45:23.508Z,77.20
2022-09-25T20:47:55.586Z,77.15
2022-09-25T20:50:27.559Z,77.30
2022-09-25T20:52:59.685Z,77.43
2022-09-25T20:55:31.848Z,77.27
2022-09-25T20:58:04.061Z,77.39
2022-09-25T21:00:36.028Z,77.63
2022-09-25T21:03:08.884Z,77.77
2022-09-25T21:05:42.908Z,77.60
2022-09-25T21:08:15.530Z,76.96
2022-09-25T21:10:51.384Z,76.87
2022-09-25T21:13:23.620Z,76.88
2022-09-25T21:15:57.837Z,76.76
2022-09-25T21:18:29.995Z,77.06
2022-09-25T21:21:07.282Z,77.12
2022-09-25T21:23:39.948Z,76.58
2022-09-25T21:26:14.451Z,76.54
2022-09-25T21:28:46.853Z,76.83
2022-09-25T21:31:21.440Z,78.07
2022-09-25T21:33:54.882Z,77.03
2022-09-25T21:36:28.448Z,76.72
2022-09-25T21:39:01.661Z,76.71
2022-09-25T21:41:34.209Z,76.62
2022-09-25T21:44:09.638Z,76.43
2022-09-25T21:46:42.154Z,76.17
2022-09-25T21:49:19.989Z,75.97
2022-09-25T21:51:52.714Z,75.86
2022-09-25T21:54:25.396Z,76.11
2022-09-25T21:56:57.374Z,76.23
2022-09-25T21:59:29.523Z,76.09
2022-09-25T22:02:01.512Z,76.08
2022-09-25T22:04:33.989Z,75.86
2022-09-25T22:07:06.263Z,75.57
2022-09-25T22:09:38.247Z,75.54
2022-09-25T22:12:10.424Z,76.04
2022-09-25T22:14:42.759Z,75.78
2022-09-25T22:17:14.864Z,75.77
2022-09-25T22:19:47.043Z,75.99
2022-09-25T22:22:19.328Z,75.98
2022-09-25T22:24:51.495Z,75.77
2022-09-25T22:27:23.540Z,76.00
2022-09-25T22:29:55.791Z,76.34
2022-09-25T22:32:28.329Z,76.20
2022-09-25T22:35:00.361Z,76.13
2022-09-25T22:37:32.720Z,76.19
2022-09-25T22:40:05.304Z,76.17
2022-09-25T22:42:37.742Z,76.26
2022-09-25T22:45:10.023Z,76.70
2022-09-25T22:47:42.547Z,76.56
2022-09-25T22:50:15.029Z,76.81
2022-09-25T22:52:47.208Z,76.53
2022-09-25T22:55:19.204Z,76.17
2022-09-25T22:57:51.601Z,75.89
2022-09-25T23:00:23.678Z,76.11
2022-09-25T23:02:57.200Z,76.11
2022-09-25T23:05:29.189Z,76.12
2022-09-25T23:08:01.384Z,76.06
2022-09-25T23:11:02.502Z,76.01
2022-09-25T23:13:09.048Z,76.31
2022-09-25T23:15:41.448Z,76.44
2022-09-25T23:18:13.790Z,76.20
2022-09-25T23:20:45.822Z,76.43
2022-09-25T23:23:17.900Z,76.80
2022-09-25T23:25:50.050Z,76.96
2022-09-25T23:28:22.364Z,77.25
2022-09-25T23:30:54.438Z,77.47
2022-09-25T23:33:26.574Z,77.35
2022-09-25T23:36:04.429Z,77.47
2022-09-25T23:38:37.146Z,77.76
2022-09-25T23:41:30.204Z,77.82
2022-09-25T23:44:04.602Z,77.96
2022-09-25T23:46:39.585Z,77.76
2022-09-25T23:49:12.195Z,77.89
2022-09-25T23:51:44.327Z,77.91
2022-09-25T23:54:18.462Z,78.03
2022-09-25T23:56:50.540Z,78.39
2022-09-25T23:59:22.573Z,78.49
